sensor_id;sensor_type;location;lat;lon;timestamp;P1;durP1;ratioP1;P2;durP2;ratioP2
17794;SDS011;9021;50.882;4.326;2023-04-06T00:01:06;14.38;;;9.90;;
17794;SDS011;9021;50.882;4.326;2023-04-06T00:03:35;16.25;;;10.38;;
17794;SDS011;9021;50.882;4.326;2023-04-06T00:06:01;15.45;;;9.95;;
17794;SDS011;9021;50.882;4.326;2023-04-06T00:08:26;18.40;;;10.38;;
17794;SDS011;9021;50.882;4.326;2023-04-06T00:10:52;19.08;;;10.70;;
17794;SDS011;9021;50.882;4.326;2023-04-06T00:13:18;17.83;;;9.85;;
17794;SDS011;9021;50.882;4.326;2023-04-06T00:15:44;16.35;;;10.40;;
17794;SDS011;9021;50.882;4.326;2023-04-06T00:18:10;20.27;;;11.05;;
17794;SDS011;9021;50.882;4.326;2023-04-06T00:20:36;14.25;;;10.77;;
17794;SDS011;9021;50.882;4.326;2023-04-06T00:23:01;14.45;;;11.23;;
17794;SDS011;9021;50.882;4.326;2023-04-06T00:25:27;13.88;;;10.70;;
17794;SDS011;9021;50.882;4.326;2023-04-06T00:27:53;16.58;;;10.80;;
17794;SDS011;9021;50.882;4.326;2023-04-06T00:30:19;14.52;;;10.48;;
17794;SDS011;9021;50.882;4.326;2023-04-06T00:32:44;18.10;;;11.52;;
17794;SDS011;9021;50.882;4.326;2023-04-06T00:35:10;17.73;;;11.50;;
17794;SDS011;9021;50.882;4.326;2023-04-06T00:37:36;15.82;;;11.02;;
17794;SDS011;9021;50.882;4.326;2023-04-06T00:40:02;18.13;;;11.30;;
17794;SDS011;9021;50.882;4.326;2023-04-06T00:42:27;15.98;;;10.93;;
17794;SDS011;9021;50.882;4.326;2023-04-06T00:44:54;16.27;;;11.38;;
17794;SDS011;9021;50.882;4.326;2023-04-06T00:47:21;15.77;;;11.10;;
17794;SDS011;9021;50.882;4.326;2023-04-06T00:49:47;15.90;;;11.05;;
17794;SDS011;9021;50.882;4.326;2023-04-06T00:52:13;19.35;;;10.90;;
17794;SDS011;9021;50.882;4.326;2023-04-06T00:54:39;15.15;;;10.77;;
17794;SDS011;9021;50.882;4.326;2023-04-06T00:57:05;14.13;;;10.88;;
17794;SDS011;9021;50.882;4.326;2023-04-06T00:59:31;14.88;;;10.63;;
17794;SDS011;9021;50.882;4.326;2023-04-06T01:01:57;16.58;;;11.80;;
17794;SDS011;9021;50.882;4.326;2023-04-06T01:04:23;16.35;;;10.60;;
17794;SDS011;9021;50.882;4.326;2023-04-06T01:09:15;17.02;;;10.73;;
17794;SDS011;9021;50.882;4.326;2023-04-06T01:11:41;16.08;;;10.98;;
17794;SDS011;9021;50.882;4.326;2023-04-06T01:14:07;17.65;;;11.77;;
17794;SDS011;9021;50.882;4.326;2023-04-06T01:16:33;17.48;;;10.98;;
17794;SDS011;9021;50.882;4.326;2023-04-06T01:18:59;18.40;;;11.10;;
17794;SDS011;9021;50.882;4.326;2023-04-06T01:21:25;15.27;;;10.90;;
17794;SDS011;9021;50.882;4.326;2023-04-06T01:23:51;16.85;;;11.50;;
17794;SDS011;9021;50.882;4.326;2023-04-06T01:26:17;20.15;;;11.43;;
17794;SDS011;9021;50.882;4.326;2023-04-06T01:28:42;19.10;;;11.70;;
17794;SDS011;9021;50.882;4.326;2023-04-06T01:31:09;16.25;;;11.50;;
17794;SDS011;9021;50.882;4.326;2023-04-06T01:36:01;18.23;;;11.73;;
17794;SDS011;9021;50.882;4.326;2023-04-06T01:38:27;15.70;;;11.38;;
17794;SDS011;9021;50.882;4.326;2023-04-06T01:40:53;20.45;;;11.23;;
17794;SDS011;9021;50.882;4.326;2023-04-06T01:43:19;17.95;;;11.13;;
17794;SDS011;9021;50.882;4.326;2023-04-06T01:45:45;20.08;;;11.23;;
17794;SDS011;9021;50.882;4.326;2023-04-06T01:48:11;18.27;;;11.98;;
17794;SDS011;9021;50.882;4.326;2023-04-06T01:50:37;18.92;;;12.13;;
17794;SDS011;9021;50.882;4.326;2023-04-06T01:53:02;15.30;;;11.07;;
17794;SDS011;9021;50.882;4.326;2023-04-06T01:55:29;13.32;;;10.82;;
17794;SDS011;9021;50.882;4.326;2023-04-06T01:57:55;15.55;;;11.05;;
17794;SDS011;9021;50.882;4.326;2023-04-06T02:00:21;15.70;;;10.55;;
17794;SDS011;9021;50.882;4.326;2023-04-06T02:02:47;17.33;;;11.45;;
17794;SDS011;9021;50.882;4.326;2023-04-06T02:05:13;16.42;;;11.48;;
17794;SDS011;9021;50.882;4.326;2023-04-06T02:07:38;15.32;;;11.10;;
17794;SDS011;9021;50.882;4.326;2023-04-06T02:10:04;15.88;;;11.57;;
17794;SDS011;9021;50.882;4.326;2023-04-06T02:12:35;17.00;;;11.77;;
17794;SDS011;9021;50.882;4.326;2023-04-06T02:15:01;17.60;;;11.35;;
17794;SDS011;9021;50.882;4.326;2023-04-06T02:17:27;15.93;;;10.50;;
17794;SDS011;9021;50.882;4.326;2023-04-06T02:19:52;15.85;;;10.50;;
17794;SDS011;9021;50.882;4.326;2023-04-06T02:22:18;17.90;;;11.43;;
17794;SDS011;9021;50.882;4.326;2023-04-06T02:24:43;17.52;;;11.32;;
17794;SDS011;9021;50.882;4.326;2023-04-06T02:27:09;15.60;;;11.05;;
17794;SDS011;9021;50.882;4.326;2023-04-06T02:29:35;13.70;;;10.88;;
17794;SDS011;9021;50.882;4.326;2023-04-06T02:32:00;16.83;;;11.18;;
17794;SDS011;9021;50.882;4.326;2023-04-06T02:34:26;16.50;;;11.38;;
17794;SDS011;9021;50.882;4.326;2023-04-06T02:36:52;16.48;;;11.02;;
17794;SDS011;9021;50.882;4.326;2023-04-06T02:39:17;16.75;;;11.23;;
17794;SDS011;9021;50.882;4.326;2023-04-06T02:44:09;15.10;;;10.85;;
17794;SDS011;9021;50.882;4.326;2023-04-06T02:46:35;14.35;;;10.80;;
17794;SDS011;9021;50.882;4.326;2023-04-06T02:49:01;19.58;;;10.73;;
17794;SDS011;9021;50.882;4.326;2023-04-06T02:51:26;18.30;;;11.25;;
17794;SDS011;9021;50.882;4.326;2023-04-06T02:53:52;15.85;;;11.02;;
17794;SDS011;9021;50.882;4.326;2023-04-06T02:56:18;15.80;;;10.98;;
17794;SDS011;9021;50.882;4.326;2023-04-06T02:58:45;15.65;;;12.05;;
17794;SDS011;9021;50.882;4.326;2023-04-06T03:01:11;15.15;;;10.90;;
17794;SDS011;9021;50.882;4.326;2023-04-06T03:03:37;18.52;;;11.38;;
17794;SDS011;9021;50.882;4.326;2023-04-06T03:06:03;15.65;;;11.40;;
17794;SDS011;9021;50.882;4.326;2023-04-06T03:08:28;16.92;;;11.57;;
17794;SDS011;9021;50.882;4.326;2023-04-06T03:10:54;16.30;;;11.30;;
17794;SDS011;9021;50.882;4.326;2023-04-06T03:13:20;19.88;;;11.18;;
17794;SDS011;9021;50.882;4.326;2023-04-06T03:15:46;18.80;;;11.20;;
17794;SDS011;9021;50.882;4.326;2023-04-06T03:18:12;16.83;;;11.63;;
17794;SDS011;9021;50.882;4.326;2023-04-06T03:20:37;15.82;;;11.23;;
17794;SDS011;9021;50.882;4.326;2023-04-06T03:23:03;17.70;;;11.65;;
17794;SDS011;9021;50.882;4.326;2023-04-06T03:25:29;18.90;;;11.50;;
17794;SDS011;9021;50.882;4.326;2023-04-06T03:27:57;15.82;;;11.30;;
17794;SDS011;9021;50.882;4.326;2023-04-06T03:30:23;15.23;;;10.38;;
17794;SDS011;9021;50.882;4.326;2023-04-06T03:32:48;15.02;;;10.82;;
17794;SDS011;9021;50.882;4.326;2023-04-06T03:35:14;15.32;;;10.55;;
17794;SDS011;9021;50.882;4.326;2023-04-06T03:37:40;18.63;;;10.93;;
17794;SDS011;9021;50.882;4.326;2023-04-06T03:40:05;15.00;;;11.30;;
17794;SDS011;9021;50.882;4.326;2023-04-06T03:42:31;16.45;;;11.70;;
17794;SDS011;9021;50.882;4.326;2023-04-06T03:44:57;14.85;;;11.18;;
17794;SDS011;9021;50.882;4.326;2023-04-06T03:49:49;15.48;;;11.18;;
17794;SDS011;9021;50.882;4.326;2023-04-06T03:52:15;14.35;;;10.52;;
17794;SDS011;9021;50.882;4.326;2023-04-06T03:54:41;16.02;;;11.27;;
17794;SDS011;9021;50.882;4.326;2023-04-06T03:57:06;15.68;;;11.23;;
17794;SDS011;9021;50.882;4.326;2023-04-06T03:59:32;15.07;;;11.02;;
17794;SDS011;9021;50.882;4.326;2023-04-06T04:01:58;20.92;;;11.35;;
17794;SDS011;9021;50.882;4.326;2023-04-06T04:04:24;16.73;;;10.48;;
17794;SDS011;9021;50.882;4.326;2023-04-06T04:06:49;16.70;;;11.07;;
17794;SDS011;9021;50.882;4.326;2023-04-06T04:09:15;16.75;;;11.30;;
17794;SDS011;9021;50.882;4.326;2023-04-06T04:11:41;16.17;;;11.35;;
17794;SDS011;9021;50.882;4.326;2023-04-06T04:14:06;13.88;;;10.38;;
17794;SDS011;9021;50.882;4.326;2023-04-06T04:16:32;14.52;;;11.27;;
17794;SDS011;9021;50.882;4.326;2023-04-06T04:18:58;16.23;;;12.13;;
17794;SDS011;9021;50.882;4.326;2023-04-06T04:21:23;17.42;;;12.00;;
17794;SDS011;9021;50.882;4.326;2023-04-06T04:23:50;15.88;;;11.75;;
17794;SDS011;9021;50.882;4.326;2023-04-06T04:26:17;20.40;;;12.02;;
17794;SDS011;9021;50.882;4.326;2023-04-06T04:28:43;17.42;;;11.95;;
17794;SDS011;9021;50.882;4.326;2023-04-06T04:31:09;17.00;;;11.68;;
17794;SDS011;9021;50.882;4.326;2023-04-06T04:33:35;15.32;;;12.10;;
17794;SDS011;9021;50.882;4.326;2023-04-06T04:36:00;18.27;;;12.13;;
17794;SDS011;9021;50.882;4.326;2023-04-06T04:38:26;19.27;;;12.23;;
17794;SDS011;9021;50.882;4.326;2023-04-06T04:40:52;15.05;;;11.98;;
17794;SDS011;9021;50.882;4.326;2023-04-06T04:43:18;14.93;;;11.80;;
17794;SDS011;9021;50.882;4.326;2023-04-06T04:45:44;14.13;;;12.18;;
17794;SDS011;9021;50.882;4.326;2023-04-06T04:48:09;15.15;;;12.23;;
17794;SDS011;9021;50.882;4.326;2023-04-06T04:50:35;15.95;;;12.65;;
17794;SDS011;9021;50.882;4.326;2023-04-06T04:55:27;17.58;;;12.05;;
17794;SDS011;9021;50.882;4.326;2023-04-06T04:57:54;14.85;;;11.68;;
17794;SDS011;9021;50.882;4.326;2023-04-06T05:00:20;14.90;;;11.52;;
17794;SDS011;9021;50.882;4.326;2023-04-06T05:02:45;16.10;;;12.90;;
17794;SDS011;9021;50.882;4.326;2023-04-06T05:05:11;16.70;;;12.57;;
17794;SDS011;9021;50.882;4.326;2023-04-06T05:07:37;18.73;;;12.75;;
17794;SDS011;9021;50.882;4.326;2023-04-06T05:10:03;19.00;;;13.07;;
17794;SDS011;9021;50.882;4.326;2023-04-06T05:12:28;17.13;;;13.30;;
17794;SDS011;9021;50.882;4.326;2023-04-06T05:14:55;17.38;;;12.40;;
17794;SDS011;9021;50.882;4.326;2023-04-06T05:17:20;18.50;;;12.57;;
17794;SDS011;9021;50.882;4.326;2023-04-06T05:19:46;16.60;;;13.20;;
17794;SDS011;9021;50.882;4.326;2023-04-06T05:22:12;20.98;;;13.65;;
17794;SDS011;9021;50.882;4.326;2023-04-06T05:24:39;17.35;;;13.85;;
17794;SDS011;9021;50.882;4.326;2023-04-06T05:27:05;18.10;;;13.52;;
17794;SDS011;9021;50.882;4.326;2023-04-06T05:29:31;25.73;;;14.23;;
17794;SDS011;9021;50.882;4.326;2023-04-06T05:31:57;19.92;;;12.82;;
17794;SDS011;9021;50.882;4.326;2023-04-06T05:34:25;19.83;;;14.02;;
17794;SDS011;9021;50.882;4.326;2023-04-06T05:36:57;21.02;;;13.48;;
17794;SDS011;9021;50.882;4.326;2023-04-06T05:39:23;17.95;;;13.77;;
17794;SDS011;9021;50.882;4.326;2023-04-06T05:41:49;23.27;;;13.95;;
17794;SDS011;9021;50.882;4.326;2023-04-06T05:44:15;18.42;;;13.88;;
17794;SDS011;9021;50.882;4.326;2023-04-06T05:46:41;18.00;;;13.68;;
17794;SDS011;9021;50.882;4.326;2023-04-06T05:49:07;16.13;;;13.10;;
17794;SDS011;9021;50.882;4.326;2023-04-06T05:51:33;18.63;;;14.50;;
17794;SDS011;9021;50.882;4.326;2023-04-06T05:53:59;19.05;;;14.98;;
17794;SDS011;9021;50.882;4.326;2023-04-06T05:56:24;22.42;;;15.00;;
17794;SDS011;9021;50.882;4.326;2023-04-06T05:58:51;23.80;;;14.43;;
17794;SDS011;9021;50.882;4.326;2023-04-06T06:01:17;21.88;;;14.80;;
17794;SDS011;9021;50.882;4.326;2023-04-06T06:03:42;20.75;;;15.00;;
17794;SDS011;9021;50.882;4.326;2023-04-06T06:06:08;19.50;;;14.68;;
17794;SDS011;9021;50.882;4.326;2023-04-06T06:08:34;22.30;;;15.10;;
17794;SDS011;9021;50.882;4.326;2023-04-06T06:10:59;19.85;;;14.45;;
17794;SDS011;9021;50.882;4.326;2023-04-06T06:13:26;49.45;;;15.43;;
17794;SDS011;9021;50.882;4.326;2023-04-06T06:15:52;20.23;;;14.23;;
17794;SDS011;9021;50.882;4.326;2023-04-06T06:18:17;25.25;;;14.43;;
17794;SDS011;9021;50.882;4.326;2023-04-06T06:20:43;18.83;;;14.73;;
17794;SDS011;9021;50.882;4.326;2023-04-06T06:23:09;18.95;;;14.68;;
17794;SDS011;9021;50.882;4.326;2023-04-06T06:25:35;19.55;;;15.32;;
17794;SDS011;9021;50.882;4.326;2023-04-06T06:28:00;29.80;;;16.25;;
17794;SDS011;9021;50.882;4.326;2023-04-06T06:30:26;19.02;;;14.80;;
17794;SDS011;9021;50.882;4.326;2023-04-06T06:32:52;20.52;;;15.27;;
17794;SDS011;9021;50.882;4.326;2023-04-06T06:35:17;19.70;;;14.48;;
17794;SDS011;9021;50.882;4.326;2023-04-06T06:37:43;19.98;;;15.50;;
17794;SDS011;9021;50.882;4.326;2023-04-06T06:40:09;22.50;;;18.00;;
17794;SDS011;9021;50.882;4.326;2023-04-06T06:42:38;24.13;;;15.75;;
17794;SDS011;9021;50.882;4.326;2023-04-06T06:45:04;26.80;;;15.93;;
17794;SDS011;9021;50.882;4.326;2023-04-06T06:47:30;22.33;;;15.85;;
17794;SDS011;9021;50.882;4.326;2023-04-06T06:49:56;22.85;;;15.85;;
17794;SDS011;9021;50.882;4.326;2023-04-06T06:52:22;21.55;;;16.38;;
17794;SDS011;9021;50.882;4.326;2023-04-06T06:54:48;26.27;;;16.20;;
17794;SDS011;9021;50.882;4.326;2023-04-06T06:57:14;21.70;;;16.52;;
17794;SDS011;9021;50.882;4.326;2023-04-06T06:59:40;23.42;;;15.98;;
17794;SDS011;9021;50.882;4.326;2023-04-06T07:02:06;20.70;;;15.13;;
17794;SDS011;9021;50.882;4.326;2023-04-06T07:04:31;23.10;;;15.68;;
17794;SDS011;9021;50.882;4.326;2023-04-06T07:06:57;22.67;;;15.75;;
17794;SDS011;9021;50.882;4.326;2023-04-06T07:09:23;18.45;;;15.18;;
17794;SDS011;9021;50.882;4.326;2023-04-06T07:11:48;20.90;;;15.60;;
17794;SDS011;9021;50.882;4.326;2023-04-06T07:14:15;18.08;;;14.40;;
17794;SDS011;9021;50.882;4.326;2023-04-06T07:16:41;18.35;;;15.38;;
17794;SDS011;9021;50.882;4.326;2023-04-06T07:19:06;20.60;;;15.35;;
17794;SDS011;9021;50.882;4.326;2023-04-06T07:21:34;21.55;;;15.55;;
17794;SDS011;9021;50.882;4.326;2023-04-06T07:24:00;19.55;;;14.77;;
17794;SDS011;9021;50.882;4.326;2023-04-06T07:26:26;18.38;;;14.00;;
17794;SDS011;9021;50.882;4.326;2023-04-06T07:28:52;21.13;;;14.77;;
17794;SDS011;9021;50.882;4.326;2023-04-06T07:31:18;18.05;;;13.25;;
17794;SDS011;9021;50.882;4.326;2023-04-06T07:33:44;20.60;;;13.73;;
17794;SDS011;9021;50.882;4.326;2023-04-06T07:36:10;22.85;;;13.65;;
17794;SDS011;9021;50.882;4.326;2023-04-06T07:38:35;15.50;;;11.80;;
17794;SDS011;9021;50.882;4.326;2023-04-06T07:41:01;21.83;;;14.15;;
17794;SDS011;9021;50.882;4.326;2023-04-06T07:43:28;19.45;;;13.13;;
17794;SDS011;9021;50.882;4.326;2023-04-06T07:45:55;17.30;;;12.23;;
17794;SDS011;9021;50.882;4.326;2023-04-06T07:48:22;17.73;;;11.85;;
17794;SDS011;9021;50.882;4.326;2023-04-06T07:53:14;19.33;;;10.55;;
17794;SDS011;9021;50.882;4.326;2023-04-06T07:55:40;14.93;;;11.05;;
17794;SDS011;9021;50.882;4.326;2023-04-06T07:58:06;12.45;;;9.43;;
17794;SDS011;9021;50.882;4.326;2023-04-06T08:00:33;17.98;;;10.23;;
17794;SDS011;9021;50.882;4.326;2023-04-06T08:02:58;16.55;;;9.80;;
17794;SDS011;9021;50.882;4.326;2023-04-06T08:05:24;12.90;;;9.02;;
17794;SDS011;9021;50.882;4.326;2023-04-06T08:07:50;13.43;;;8.88;;
17794;SDS011;9021;50.882;4.326;2023-04-06T08:10:15;17.75;;;9.10;;
17794;SDS011;9021;50.882;4.326;2023-04-06T08:12:41;14.98;;;9.63;;
17794;SDS011;9021;50.882;4.326;2023-04-06T08:15:07;13.00;;;8.52;;
17794;SDS011;9021;50.882;4.326;2023-04-06T08:17:32;14.05;;;9.77;;
17794;SDS011;9021;50.882;4.326;2023-04-06T08:19:59;17.30;;;10.38;;
17794;SDS011;9021;50.882;4.326;2023-04-06T08:22:24;13.57;;;9.95;;
17794;SDS011;9021;50.882;4.326;2023-04-06T08:24:51;17.52;;;9.73;;
17794;SDS011;9021;50.882;4.326;2023-04-06T08:27:16;12.70;;;9.07;;
17794;SDS011;9021;50.882;4.326;2023-04-06T08:29:42;11.02;;;8.75;;
17794;SDS011;9021;50.882;4.326;2023-04-06T08:32:08;11.77;;;8.35;;
17794;SDS011;9021;50.882;4.326;2023-04-06T08:34:34;13.40;;;9.13;;
17794;SDS011;9021;50.882;4.326;2023-04-06T08:39:26;10.07;;;7.68;;
17794;SDS011;9021;50.882;4.326;2023-04-06T08:41:52;11.73;;;7.72;;
17794;SDS011;9021;50.882;4.326;2023-04-06T08:44:22;12.98;;;7.88;;
17794;SDS011;9021;50.882;4.326;2023-04-06T08:51:41;12.40;;;7.38;;
17794;SDS011;9021;50.882;4.326;2023-04-06T08:54:07;10.55;;;7.88;;
17794;SDS011;9021;50.882;4.326;2023-04-06T08:56:33;13.60;;;8.50;;
17794;SDS011;9021;50.882;4.326;2023-04-06T08:59:03;10.32;;;8.02;;
17794;SDS011;9021;50.882;4.326;2023-04-06T09:01:29;11.43;;;8.25;;
17794;SDS011;9021;50.882;4.326;2023-04-06T09:03:58;11.90;;;8.18;;
17794;SDS011;9021;50.882;4.326;2023-04-06T09:06:25;11.32;;;8.50;;
17794;SDS011;9021;50.882;4.326;2023-04-06T09:08:55;14.45;;;8.02;;
17794;SDS011;9021;50.882;4.326;2023-04-06T09:11:21;14.70;;;8.43;;
17794;SDS011;9021;50.882;4.326;2023-04-06T09:13:51;12.55;;;9.50;;
17794;SDS011;9021;50.882;4.326;2023-04-06T09:16:19;11.07;;;9.27;;
17794;SDS011;9021;50.882;4.326;2023-04-06T09:18:46;14.48;;;10.05;;
17794;SDS011;9021;50.882;4.326;2023-04-06T09:23:38;14.23;;;10.23;;
17794;SDS011;9021;50.882;4.326;2023-04-06T09:31:23;11.88;;;9.30;;
17794;SDS011;9021;50.882;4.326;2023-04-06T09:33:54;13.60;;;9.73;;
17794;SDS011;9021;50.882;4.326;2023-04-06T09:38:55;14.38;;;9.48;;
17794;SDS011;9021;50.882;4.326;2023-04-06T09:41:26;11.30;;;9.00;;
17794;SDS011;9021;50.882;4.326;2023-04-06T09:44:01;13.98;;;9.73;;
17794;SDS011;9021;50.882;4.326;2023-04-06T09:46:35;13.68;;;9.00;;
17794;SDS011;9021;50.882;4.326;2023-04-06T09:49:03;12.50;;;8.93;;
17794;SDS011;9021;50.882;4.326;2023-04-06T09:51:30;13.57;;;11.80;;
17794;SDS011;9021;50.882;4.326;2023-04-06T09:53:57;12.98;;;10.55;;
17794;SDS011;9021;50.882;4.326;2023-04-06T09:56:28;13.55;;;9.20;;
17794;SDS011;9021;50.882;4.326;2023-04-06T09:59:01;16.42;;;9.65;;
17794;SDS011;9021;50.882;4.326;2023-04-06T10:01:28;13.90;;;10.75;;
17794;SDS011;9021;50.882;4.326;2023-04-06T10:06:39;12.90;;;9.48;;
17794;SDS011;9021;50.882;4.326;2023-04-06T10:09:06;12.50;;;8.95;;
17794;SDS011;9021;50.882;4.326;2023-04-06T10:11:33;10.98;;;8.98;;
17794;SDS011;9021;50.882;4.326;2023-04-06T10:13:59;11.20;;;8.43;;
17794;SDS011;9021;50.882;4.326;2023-04-06T10:18:56;10.75;;;8.07;;
17794;SDS011;9021;50.882;4.326;2023-04-06T10:21:29;12.07;;;8.10;;
17794;SDS011;9021;50.882;4.326;2023-04-06T10:24:01;10.68;;;8.43;;
17794;SDS011;9021;50.882;4.326;2023-04-06T10:26:27;9.90;;;7.97;;
17794;SDS011;9021;50.882;4.326;2023-04-06T10:28:53;11.02;;;8.23;;
17794;SDS011;9021;50.882;4.326;2023-04-06T10:31:26;9.45;;;7.72;;
17794;SDS011;9021;50.882;4.326;2023-04-06T10:33:59;11.55;;;8.73;;
17794;SDS011;9021;50.882;4.326;2023-04-06T10:36:27;13.13;;;8.80;;
17794;SDS011;9021;50.882;4.326;2023-04-06T10:39:03;9.88;;;8.88;;
17794;SDS011;9021;50.882;4.326;2023-04-06T10:41:41;12.75;;;9.70;;
17794;SDS011;9021;50.882;4.326;2023-04-06T10:44:08;9.30;;;8.30;;
17794;SDS011;9021;50.882;4.326;2023-04-06T10:46:55;11.52;;;9.35;;
17794;SDS011;9021;50.882;4.326;2023-04-06T10:49:22;10.77;;;8.73;;
17794;SDS011;9021;50.882;4.326;2023-04-06T10:51:56;10.75;;;8.80;;
17794;SDS011;9021;50.882;4.326;2023-04-06T10:54:22;12.75;;;9.20;;
17794;SDS011;9021;50.882;4.326;2023-04-06T10:56:49;10.45;;;8.43;;
17794;SDS011;9021;50.882;4.326;2023-04-06T10:59:19;10.20;;;8.63;;
17794;SDS011;9021;50.882;4.326;2023-04-06T11:01:46;11.68;;;8.98;;
17794;SDS011;9021;50.882;4.326;2023-04-06T11:04:15;11.60;;;9.35;;
17794;SDS011;9021;50.882;4.326;2023-04-06T11:06:41;11.68;;;9.02;;
17794;SDS011;9021;50.882;4.326;2023-04-06T11:09:22;12.38;;;8.73;;
17794;SDS011;9021;50.882;4.326;2023-04-06T11:11:51;12.40;;;9.05;;
17794;SDS011;9021;50.882;4.326;2023-04-06T11:14:17;12.18;;;10.00;;
17794;SDS011;9021;50.882;4.326;2023-04-06T11:16:45;12.45;;;9.50;;
17794;SDS011;9021;50.882;4.326;2023-04-06T11:19:13;13.35;;;9.80;;
17794;SDS011;9021;50.882;4.326;2023-04-06T11:21:48;15.18;;;10.32;;
17794;SDS011;9021;50.882;4.326;2023-04-06T11:26:42;11.32;;;9.55;;
17794;SDS011;9021;50.882;4.326;2023-04-06T11:29:20;13.05;;;9.52;;
17794;SDS011;9021;50.882;4.326;2023-04-06T11:31:48;11.05;;;9.10;;
17794;SDS011;9021;50.882;4.326;2023-04-06T11:34:16;12.48;;;9.43;;
17794;SDS011;9021;50.882;4.326;2023-04-06T11:36:44;12.15;;;9.75;;
17794;SDS011;9021;50.882;4.326;2023-04-06T11:39:18;11.23;;;9.27;;
17794;SDS011;9021;50.882;4.326;2023-04-06T11:41:49;13.82;;;9.65;;
17794;SDS011;9021;50.882;4.326;2023-04-06T11:44:26;14.15;;;9.95;;
17794;SDS011;9021;50.882;4.326;2023-04-06T11:47:14;11.38;;;8.95;;
17794;SDS011;9021;50.882;4.326;2023-04-06T11:49:40;12.68;;;9.82;;
17794;SDS011;9021;50.882;4.326;2023-04-06T11:52:22;13.00;;;10.13;;
17794;SDS011;9021;50.882;4.326;2023-04-06T11:54:49;13.40;;;9.95;;
17794;SDS011;9021;50.882;4.326;2023-04-06T11:57:16;14.02;;;10.82;;
17794;SDS011;9021;50.882;4.326;2023-04-06T11:59:43;14.32;;;11.05;;
17794;SDS011;9021;50.882;4.326;2023-04-06T12:02:10;13.93;;;10.77;;
17794;SDS011;9021;50.882;4.326;2023-04-06T12:04:36;15.75;;;10.80;;
17794;SDS011;9021;50.882;4.326;2023-04-06T12:07:02;13.18;;;10.60;;
17794;SDS011;9021;50.882;4.326;2023-04-06T12:09:28;13.55;;;10.63;;
17794;SDS011;9021;50.882;4.326;2023-04-06T12:11:54;15.60;;;10.95;;
17794;SDS011;9021;50.882;4.326;2023-04-06T12:14:20;12.48;;;10.32;;
17794;SDS011;9021;50.882;4.326;2023-04-06T12:16:46;12.52;;;10.88;;
17794;SDS011;9021;50.882;4.326;2023-04-06T12:19:12;10.73;;;9.57;;
17794;SDS011;9021;50.882;4.326;2023-04-06T12:21:38;14.50;;;10.35;;
17794;SDS011;9021;50.882;4.326;2023-04-06T12:24:04;14.65;;;10.00;;
17794;SDS011;9021;50.882;4.326;2023-04-06T12:26:30;12.52;;;10.18;;
17794;SDS011;9021;50.882;4.326;2023-04-06T12:31:28;12.88;;;10.82;;
17794;SDS011;9021;50.882;4.326;2023-04-06T12:33:53;14.73;;;10.55;;
17794;SDS011;9021;50.882;4.326;2023-04-06T12:36:19;11.77;;;9.70;;
17794;SDS011;9021;50.882;4.326;2023-04-06T12:38:49;11.50;;;10.30;;
17794;SDS011;9021;50.882;4.326;2023-04-06T12:41:15;13.60;;;10.52;;
17794;SDS011;9021;50.882;4.326;2023-04-06T12:43:42;14.25;;;11.27;;
17794;SDS011;9021;50.882;4.326;2023-04-06T12:46:08;15.93;;;11.50;;
17794;SDS011;9021;50.882;4.326;2023-04-06T12:48:35;13.80;;;10.95;;
17794;SDS011;9021;50.882;4.326;2023-04-06T12:51:02;14.23;;;10.68;;
17794;SDS011;9021;50.882;4.326;2023-04-06T12:53:29;14.48;;;12.10;;
17794;SDS011;9021;50.882;4.326;2023-04-06T12:55:55;13.68;;;10.77;;
17794;SDS011;9021;50.882;4.326;2023-04-06T12:58:21;14.57;;;11.55;;
17794;SDS011;9021;50.882;4.326;2023-04-06T13:00:48;17.55;;;12.45;;
17794;SDS011;9021;50.882;4.326;2023-04-06T13:03:20;16.83;;;13.90;;
17794;SDS011;9021;50.882;4.326;2023-04-06T13:05:47;16.73;;;13.70;;
17794;SDS011;9021;50.882;4.326;2023-04-06T13:08:14;14.50;;;12.73;;
17794;SDS011;9021;50.882;4.326;2023-04-06T13:10:44;14.00;;;11.95;;
17794;SDS011;9021;50.882;4.326;2023-04-06T13:13:16;14.63;;;11.95;;
17794;SDS011;9021;50.882;4.326;2023-04-06T13:15:43;14.98;;;11.55;;
17794;SDS011;9021;50.882;4.326;2023-04-06T13:18:10;18.92;;;13.88;;
17794;SDS011;9021;50.882;4.326;2023-04-06T13:20:35;16.77;;;11.88;;
17794;SDS011;9021;50.882;4.326;2023-04-06T13:23:01;16.02;;;13.25;;
17794;SDS011;9021;50.882;4.326;2023-04-06T13:25:27;15.52;;;12.52;;
17794;SDS011;9021;50.882;4.326;2023-04-06T13:27:53;15.68;;;12.23;;
17794;SDS011;9021;50.882;4.326;2023-04-06T13:30:19;14.57;;;12.05;;
17794;SDS011;9021;50.882;4.326;2023-04-06T13:32:45;14.85;;;12.63;;
17794;SDS011;9021;50.882;4.326;2023-04-06T13:35:11;13.50;;;11.82;;
17794;SDS011;9021;50.882;4.326;2023-04-06T13:37:37;14.20;;;12.45;;
17794;SDS011;9021;50.882;4.326;2023-04-06T13:40:03;18.60;;;12.50;;
17794;SDS011;9021;50.882;4.326;2023-04-06T13:42:30;14.50;;;12.00;;
17794;SDS011;9021;50.882;4.326;2023-04-06T13:44:56;16.33;;;13.65;;
17794;SDS011;9021;50.882;4.326;2023-04-06T13:47:22;16.35;;;13.88;;
17794;SDS011;9021;50.882;4.326;2023-04-06T13:49:49;16.02;;;12.98;;
17794;SDS011;9021;50.882;4.326;2023-04-06T13:52:18;14.65;;;12.23;;
17794;SDS011;9021;50.882;4.326;2023-04-06T13:54:45;14.27;;;11.57;;
17794;SDS011;9021;50.882;4.326;2023-04-06T13:57:11;12.70;;;11.40;;
17794;SDS011;9021;50.882;4.326;2023-04-06T14:02:03;15.45;;;12.55;;
17794;SDS011;9021;50.882;4.326;2023-04-06T14:04:30;15.52;;;12.00;;
17794;SDS011;9021;50.882;4.326;2023-04-06T14:09:22;18.52;;;13.40;;
17794;SDS011;9021;50.882;4.326;2023-04-06T14:11:48;15.48;;;11.90;;
17794;SDS011;9021;50.882;4.326;2023-04-06T14:14:15;13.90;;;12.50;;
17794;SDS011;9021;50.882;4.326;2023-04-06T14:16:41;16.50;;;13.13;;
17794;SDS011;9021;50.882;4.326;2023-04-06T14:19:14;15.93;;;13.15;;
17794;SDS011;9021;50.882;4.326;2023-04-06T14:21:42;15.90;;;14.13;;
17794;SDS011;9021;50.882;4.326;2023-04-06T14:24:11;16.73;;;14.10;;
17794;SDS011;9021;50.882;4.326;2023-04-06T14:26:38;18.15;;;15.02;;
17794;SDS011;9021;50.882;4.326;2023-04-06T14:29:06;20.90;;;15.15;;
17794;SDS011;9021;50.882;4.326;2023-04-06T14:33:58;18.95;;;15.48;;
17794;SDS011;9021;50.882;4.326;2023-04-06T14:36:27;15.57;;;13.95;;
17794;SDS011;9021;50.882;4.326;2023-04-06T14:38:54;18.52;;;14.60;;
17794;SDS011;9021;50.882;4.326;2023-04-06T14:41:23;17.08;;;13.93;;
17794;SDS011;9021;50.882;4.326;2023-04-06T14:43:52;18.48;;;14.32;;
17794;SDS011;9021;50.882;4.326;2023-04-06T14:46:17;16.95;;;14.35;;
17794;SDS011;9021;50.882;4.326;2023-04-06T14:48:44;16.55;;;14.65;;
17794;SDS011;9021;50.882;4.326;2023-04-06T14:51:12;17.70;;;13.18;;
17794;SDS011;9021;50.882;4.326;2023-04-06T14:53:38;20.38;;;14.55;;
17794;SDS011;9021;50.882;4.326;2023-04-06T14:56:04;15.50;;;13.75;;
17794;SDS011;9021;50.882;4.326;2023-04-06T14:58:30;17.58;;;14.60;;
17794;SDS011;9021;50.882;4.326;2023-04-06T15:00:56;17.40;;;14.10;;
17794;SDS011;9021;50.882;4.326;2023-04-06T15:03:23;20.75;;;15.40;;
17794;SDS011;9021;50.882;4.326;2023-04-06T15:05:50;18.45;;;14.35;;
17794;SDS011;9021;50.882;4.326;2023-04-06T15:08:16;16.73;;;13.85;;
17794;SDS011;9021;50.882;4.326;2023-04-06T15:10:45;17.60;;;14.43;;
17794;SDS011;9021;50.882;4.326;2023-04-06T15:13:11;18.20;;;15.02;;
17794;SDS011;9021;50.882;4.326;2023-04-06T15:15:37;18.92;;;15.30;;
17794;SDS011;9021;50.882;4.326;2023-04-06T15:18:04;20.75;;;14.68;;
17794;SDS011;9021;50.882;4.326;2023-04-06T15:20:30;19.13;;;14.23;;
17794;SDS011;9021;50.882;4.326;2023-04-06T15:22:55;17.30;;;13.77;;
17794;SDS011;9021;50.882;4.326;2023-04-06T15:25:21;20.20;;;14.38;;